M/T Arcadia — SY7849 — position and weather

sailwx.info

Track history (hours):
 
Tides and Currents Weather Stations Pressure Air Temp Water Temp Dewpoint Dewpoint Depression Visibility Wind Speed Wind Dir Waves Ship Positions

M/T Arcadia

Last reported at 2016-May-25 18:33 UTC. Time now 2016-May-25 18:56 UTC.
Position N 37°29' E 023°34'.

Length 76 m; draft 3.7 m.

Type: Tanker. MMSI: 240560000.

Date/timePositionNaut miles runAvg speedWind from/ knotsBaromVisibWave heightAir tempDewpointWater temp
2016-May-25 18:33N 37°29' E 023°34'7 7.2
2016-May-25 17:33N 37°35' E 023°29'7 6.9
2016-May-25 16:33N 37°39' E 023°22'7 6.9
2016-May-25 15:33N 37°44' E 023°16'8 7.7
2016-May-25 14:32N 37°51' E 023°10'6 5.2
2016-May-25 13:28N 37°55' E 023°05'0 0.0
2016-May-25 12:04N 37°55' E 023°05'0 0.0
2016-May-25 11:16N 37°55' E 023°05'0 0.0
2016-May-25 10:28N 37°55' E 023°05'0 0.0
2016-May-25 09:31N 37°55' E 023°05'0 0.0
2016-May-25 08:28N 37°55' E 023°05'0 0.0
2016-May-25 04:28N 37°55' E 023°05'0 0.0
2016-May-25 03:28N 37°55' E 023°05'0 0.0
2016-May-25 02:22N 37°55' E 023°05'0 0.0
2016-May-25 01:28N 37°55' E 023°05'0 0.0
2016-May-25 00:22N 37°55' E 023°05'0 0.0
2016-May-24 23:28N 37°55' E 023°05'0 0.0
2016-May-24 22:28N 37°55' E 023°05'0 0.0
2016-May-24 21:22N 37°55' E 023°05'0 0.0
2016-May-24 20:28N 37°55' E 023°05'0 0.0
2016-May-24 19:28N 37°55' E 023°05'0 0.0
2016-May-24 18:10N 37°55' E 023°05'0 0.0
2016-May-24 17:07N 37°55' E 023°05'0 0.0
2016-May-24 16:33N 37°55' E 023°05'0 0.0
2016-May-24 15:32N 37°55' E 023°05'1 0.6
2016-May-24 14:33N 37°55' E 023°06'6 6.3
2016-May-24 13:32N 37°50' E 023°11'7 7.4
2016-May-24 12:33N 37°44' E 023°16'7 7.3
2016-May-24 11:34N 37°39' E 023°23'8 8.1
2016-May-24 10:33N 37°33' E 023°30'8 8.0
2016-May-24 09:33N 37°26' E 023°35'8 7.7
2016-May-24 08:33N 37°19' E 023°34'8 8.1
2016-May-24 07:33N 37°11' E 023°30'8 7.9
2016-May-24 06:33N 37°04' E 023°26'8 7.7
2016-May-24 05:33N 36°57' E 023°22'37 7.4
2016-May-24 00:33N 36°20' E 023°29'54 7.5
2016-May-23 17:16N 35°33' E 024°03'0 0.1
2016-May-23 16:07N 35°33' E 024°03'0 0.0
2016-May-23 15:28N 35°33' E 024°03'  
2016-May-20 02:33N 35°43' E 023°52'87 6.2
2016-May-19 12:23N 37°08' E 023°29'19 6.8
2016-May-19 09:32N 37°27' E 023°36'7 7.1
2016-May-19 08:33N 37°34' E 023°35'6 6.3
2016-May-19 07:33N 37°38' E 023°29'7 7.3
2016-May-19 06:33N 37°40' E 023°20'7 6.6
2016-May-19 05:33N 37°45' E 023°15'7 7.5
2016-May-19 04:33N 37°51' E 023°10'5 0.6
2016-May-18 20:33N 37°55' E 023°05'0 0.0
2016-May-18 03:18N 37°55' E 023°05'1 0.1
2016-May-17 21:32N 37°55' E 023°06'0 0.1
2016-May-17 20:32N 37°55' E 023°06'0 0.0
2016-May-17 19:32N 37°55' E 023°06'0 0.0
2016-May-17 18:32N 37°55' E 023°06'0 0.1
2016-May-17 17:32N 37°55' E 023°06'0 0.1
2016-May-17 16:32N 37°55' E 023°06'0 0.0
2016-May-17 15:32N 37°55' E 023°06'1 1.4
2016-May-17 14:33N 37°54' E 023°07'7 6.6
2016-May-17 13:33N 37°49' E 023°12'8 8.4
2016-May-17 12:33N 37°41' E 023°18'8 8.1
2016-May-17 11:33N 37°37' E 023°26'8 8.2
2016-May-17 10:33N 37°31' E 023°33'8 7.9
2016-May-17 09:33N 37°23' E 023°36'8 8.1
2016-May-17 08:32N 37°15' E 023°34'8 8.3
2016-May-17 07:34N 37°07' E 023°31'8 8.2
2016-May-17 06:34N 36°60' E 023°27'  
Track history (hours):
 
Tides and Currents Weather Stations Pressure Air Temp Water Temp Dewpoint Dewpoint Depression Visibility Wind Speed Wind Dir Waves Ship Positions

M/T Arcadia

Last reported at 2016-May-25 18:33 UTC. Time now 2016-May-25 18:56 UTC.
Position N 37°29' E 023°34'.

Length 76 m; draft 3.7 m.

Type: Tanker. MMSI: 240560000.

Date/timePositionNaut miles runAvg speedWind from/ knotsBaromVisibWave heightAir tempDewpointWater temp
2016-May-25 18:33N 37°29' E 023°34'7 7.2
2016-May-25 17:33N 37°35' E 023°29'7 6.9
2016-May-25 16:33N 37°39' E 023°22'7 6.9
2016-May-25 15:33N 37°44' E 023°16'8 7.7
2016-May-25 14:32N 37°51' E 023°10'6 5.2
2016-May-25 13:28N 37°55' E 023°05'0 0.0
2016-May-25 12:04N 37°55' E 023°05'0 0.0
2016-May-25 11:16N 37°55' E 023°05'0 0.0
2016-May-25 10:28N 37°55' E 023°05'0 0.0
2016-May-25 09:31N 37°55' E 023°05'0 0.0
2016-May-25 08:28N 37°55' E 023°05'0 0.0
2016-May-25 04:28N 37°55' E 023°05'0 0.0
2016-May-25 03:28N 37°55' E 023°05'0 0.0
2016-May-25 02:22N 37°55' E 023°05'0 0.0
2016-May-25 01:28N 37°55' E 023°05'0 0.0
2016-May-25 00:22N 37°55' E 023°05'0 0.0
2016-May-24 23:28N 37°55' E 023°05'0 0.0
2016-May-24 22:28N 37°55' E 023°05'0 0.0
2016-May-24 21:22N 37°55' E 023°05'0 0.0
2016-May-24 20:28N 37°55' E 023°05'0 0.0
2016-May-24 19:28N 37°55' E 023°05'0 0.0
2016-May-24 18:10N 37°55' E 023°05'0 0.0
2016-May-24 17:07N 37°55' E 023°05'0 0.0
2016-May-24 16:33N 37°55' E 023°05'0 0.0
2016-May-24 15:32N 37°55' E 023°05'1 0.6
2016-May-24 14:33N 37°55' E 023°06'6 6.3
2016-May-24 13:32N 37°50' E 023°11'7 7.4
2016-May-24 12:33N 37°44' E 023°16'7 7.3
2016-May-24 11:34N 37°39' E 023°23'8 8.1
2016-May-24 10:33N 37°33' E 023°30'8 8.0
2016-May-24 09:33N 37°26' E 023°35'8 7.7
2016-May-24 08:33N 37°19' E 023°34'8 8.1
2016-May-24 07:33N 37°11' E 023°30'8 7.9
2016-May-24 06:33N 37°04' E 023°26'8 7.7
2016-May-24 05:33N 36°57' E 023°22'37 7.4
2016-May-24 00:33N 36°20' E 023°29'54 7.5
2016-May-23 17:16N 35°33' E 024°03'0 0.1
2016-May-23 16:07N 35°33' E 024°03'0 0.0
2016-May-23 15:28N 35°33' E 024°03'  
2016-May-20 02:33N 35°43' E 023°52'87 6.2
2016-May-19 12:23N 37°08' E 023°29'19 6.8
2016-May-19 09:32N 37°27' E 023°36'7 7.1
2016-May-19 08:33N 37°34' E 023°35'6 6.3
2016-May-19 07:33N 37°38' E 023°29'7 7.3
2016-May-19 06:33N 37°40' E 023°20'7 6.6
2016-May-19 05:33N 37°45' E 023°15'7 7.5
2016-May-19 04:33N 37°51' E 023°10'5 0.6
2016-May-18 20:33N 37°55' E 023°05'0 0.0
2016-May-18 03:18N 37°55' E 023°05'1 0.1
2016-May-17 21:32N 37°55' E 023°06'0 0.1
2016-May-17 20:32N 37°55' E 023°06'0 0.0
2016-May-17 19:32N 37°55' E 023°06'0 0.0
2016-May-17 18:32N 37°55' E 023°06'0 0.1
2016-May-17 17:32N 37°55' E 023°06'0 0.1
2016-May-17 16:32N 37°55' E 023°06'0 0.0
2016-May-17 15:32N 37°55' E 023°06'1 1.4
2016-May-17 14:33N 37°54' E 023°07'7 6.6
2016-May-17 13:33N 37°49' E 023°12'8 8.4
2016-May-17 12:33N 37°41' E 023°18'8 8.1
2016-May-17 11:33N 37°37' E 023°26'8 8.2
2016-May-17 10:33N 37°31' E 023°33'8 7.9
2016-May-17 09:33N 37°23' E 023°36'8 8.1
2016-May-17 08:32N 37°15' E 023°34'8 8.3
2016-May-17 07:34N 37°07' E 023°31'8 8.2
2016-May-17 06:34N 36°60' E 023°27'  

Dump ship's entire track history